createdAt,value
2022-08-01T00:00:09.324Z,10.50
2022-08-01T00:02:39.516Z,8.70
2022-08-01T00:05:08.101Z,8.87
2022-08-01T00:07:35.506Z,9.57
2022-08-01T00:10:04.019Z,10.20
2022-08-01T00:12:30.989Z,9.50
2022-08-01T00:14:57.585Z,7.67
2022-08-01T00:17:24.418Z,7.00
2022-08-01T00:19:50.948Z,7.07
2022-08-01T00:22:18.018Z,6.20
2022-08-01T00:24:44.912Z,5.20
2022-08-01T00:27:12.216Z,6.40
2022-08-01T00:30:09.536Z,4.90
2022-08-01T00:32:25.613Z,4.10
2022-08-01T00:34:52.220Z,2.93
2022-08-01T00:37:19.084Z,2.60
2022-08-01T00:39:45.663Z,2.70
2022-08-01T00:42:13.430Z,2.93
2022-08-01T00:44:40.839Z,2.73
2022-08-01T00:47:08.606Z,2.47
2022-08-01T00:49:35.753Z,2.87
2022-08-01T00:52:06.903Z,2.57
2022-08-01T00:54:33.775Z,2.83
2022-08-01T00:57:00.772Z,2.83
2022-08-01T00:59:28.619Z,2.90
2022-08-01T01:01:56.376Z,3.47
2022-08-01T01:04:23.336Z,3.43
2022-08-01T01:07:33.334Z,3.40
2022-08-01T01:10:09.266Z,4.80
2022-08-01T01:12:49.947Z,6.33
2022-08-01T01:15:37.226Z,5.83
2022-08-01T01:18:15.343Z,6.10
2022-08-01T01:20:45.690Z,5.80
2022-08-01T01:23:45.909Z,6.93
2022-08-01T01:26:24.647Z,6.33
2022-08-01T01:29:15.139Z,7.37
2022-08-01T01:31:50.733Z,8.07
2022-08-01T01:34:20.638Z,7.10
2022-08-01T01:36:48.981Z,8.17
2022-08-01T01:39:16.952Z,8.27
2022-08-01T01:41:46.263Z,8.43
2022-08-01T01:44:14.626Z,8.47
2022-08-01T01:46:42.390Z,8.83
2022-08-01T01:49:11.323Z,10.23
2022-08-01T01:51:40.217Z,9.67
2022-08-01T01:54:09.267Z,10.50
2022-08-01T01:56:49.330Z,10.97
2022-08-01T01:59:26.646Z,12.20
2022-08-01T02:02:05.781Z,11.50
2022-08-01T02:04:36.914Z,11.20
2022-08-01T02:07:04.161Z,11.73
2022-08-01T02:09:32.834Z,11.93
2022-08-01T02:12:08.707Z,10.97
2022-08-01T02:14:41.114Z,12.00
2022-08-01T02:17:11.951Z,11.70
2022-08-01T02:19:39.267Z,11.87
2022-08-01T02:22:10.508Z,12.10
2022-08-01T02:24:51.814Z,10.40
2022-08-01T02:27:29.618Z,10.03
2022-08-01T02:30:02.244Z,10.00
2022-08-01T02:32:39.410Z,10.10
2022-08-01T02:35:09.839Z,10.40
2022-08-01T02:37:44.328Z,11.07
2022-08-01T02:40:14.577Z,9.53
2022-08-01T02:42:46.355Z,10.10
2022-08-01T02:45:13.987Z,9.87
2022-08-01T02:47:42.390Z,10.77
2022-08-01T02:50:13.370Z,10.90
2022-08-01T02:52:42.615Z,11.60
2022-08-01T02:55:11.268Z,11.03
2022-08-01T02:57:52.587Z,11.93
2022-08-01T03:00:25.092Z,12.10
2022-08-01T03:02:55.864Z,11.80
2022-08-01T03:05:25.121Z,13.30
2022-08-01T03:07:53.861Z,12.90
2022-08-01T03:10:22.318Z,13.93
2022-08-01T03:12:50.980Z,12.00
2022-08-01T03:15:20.472Z,13.30
2022-08-01T03:17:49.278Z,12.83
2022-08-01T03:20:19.226Z,12.10
2022-08-01T03:22:46.816Z,13.10
2022-08-01T03:25:14.871Z,12.00
2022-08-01T03:27:44.260Z,13.70
2022-08-01T03:30:12.592Z,9.70
2022-08-01T03:32:39.489Z,9.70
2022-08-01T03:35:06.464Z,9.10
2022-08-01T03:38:15.172Z,9.07
2022-08-01T03:40:53.366Z,7.30
2022-08-01T03:43:41.753Z,5.83
2022-08-01T03:46:14.489Z,6.57
2022-08-01T03:48:46.152Z,5.73
2022-08-01T03:51:14.664Z,4.70
2022-08-01T03:53:43.101Z,4.07
2022-08-01T03:56:11.312Z,5.13
2022-08-01T03:58:40.686Z,4.17
2022-08-01T04:01:15.400Z,4.60
2022-08-01T04:03:43.558Z,5.37
2022-08-01T04:06:11.439Z,4.53
2022-08-01T04:08:39.356Z,5.07
2022-08-01T04:11:06.507Z,6.07
2022-08-01T04:13:37.177Z,6.73
2022-08-01T04:16:05.407Z,7.33
2022-08-01T04:18:33.002Z,7.37
2022-08-01T04:20:59.622Z,6.73
2022-08-01T04:23:28.458Z,8.93
2022-08-01T04:25:56.363Z,8.37
2022-08-01T04:28:23.882Z,8.70
2022-08-01T04:30:52.872Z,8.30
2022-08-01T04:33:21.102Z,9.33
2022-08-01T04:36:03.929Z,9.00
2022-08-01T04:38:34.337Z,8.87
2022-08-01T04:41:09.264Z,8.43
2022-08-01T04:43:40.132Z,9.10
2022-08-01T04:46:08.160Z,8.40
2022-08-01T04:48:37.882Z,8.97
2022-08-01T04:51:04.785Z,8.27
2022-08-01T04:53:33.301Z,7.50
2022-08-01T04:55:59.887Z,7.47
2022-08-01T04:58:26.416Z,6.87
2022-08-01T05:00:53.004Z,6.20
2022-08-01T05:03:19.811Z,6.27
2022-08-01T05:05:46.583Z,6.03
2022-08-01T05:08:13.115Z,6.10
2022-08-01T05:10:39.802Z,6.47
2022-08-01T05:13:07.429Z,5.73
2022-08-01T05:15:37.525Z,6.93
2022-08-01T05:18:04.475Z,6.17
2022-08-01T05:20:31.041Z,5.60
2022-08-01T05:22:58.506Z,5.70
2022-08-01T05:25:25.821Z,5.90
2022-08-01T05:28:12.399Z,6.50
2022-08-01T05:30:45.834Z,7.63
2022-08-01T05:33:12.401Z,8.23
2022-08-01T05:35:47.834Z,7.60
2022-08-01T05:38:15.941Z,7.00
2022-08-01T05:40:42.634Z,7.40
2022-08-01T05:43:09.195Z,7.13
2022-08-01T05:45:35.788Z,6.93
2022-08-01T05:48:02.597Z,8.50
2022-08-01T05:50:29.418Z,6.53
2022-08-01T05:52:56.422Z,6.17
2022-08-01T05:55:22.970Z,6.20
2022-08-01T05:57:49.518Z,5.43
2022-08-01T06:00:17.070Z,5.10
2022-08-01T06:02:44.687Z,4.67
2022-08-01T06:05:13.545Z,4.60
2022-08-01T06:07:40.649Z,4.60
2022-08-01T06:10:08.557Z,3.63
2022-08-01T06:12:35.993Z,4.40
2022-08-01T06:15:04.554Z,3.63
2022-08-01T06:17:31.189Z,3.13
2022-08-01T06:19:58.409Z,3.10
2022-08-01T06:22:24.949Z,2.97
2022-08-01T06:24:52.423Z,3.20
2022-08-01T06:27:22.174Z,2.60
2022-08-01T06:29:53.449Z,2.77
2022-08-01T06:32:27.401Z,2.50
2022-08-01T06:34:55.229Z,2.87
2022-08-01T06:37:22.433Z,2.83
2022-08-01T06:39:50.326Z,2.43
2022-08-01T06:42:16.991Z,2.00
2022-08-01T06:44:43.551Z,2.07
2022-08-01T06:47:10.103Z,1.63
2022-08-01T06:49:36.709Z,1.43
2022-08-01T06:52:04.831Z,1.50
2022-08-01T06:54:31.982Z,1.70
2022-08-01T06:56:58.560Z,1.30
2022-08-01T06:59:25.153Z,1.30
2022-08-01T07:01:52.047Z,1.60
2022-08-01T07:04:18.611Z,1.50
2022-08-01T07:06:45.473Z,1.40
2022-08-01T07:09:14.405Z,1.60
2022-08-01T07:11:42.015Z,2.00
2022-08-01T07:14:08.958Z,1.67
2022-08-01T07:16:35.842Z,1.47
2022-08-01T07:19:02.462Z,1.60
2022-08-01T07:21:40.055Z,1.53
2022-08-01T07:24:14.518Z,1.33
2022-08-01T07:26:54.025Z,1.40
2022-08-01T07:29:27.786Z,1.20
2022-08-01T07:41:53.388Z,1.47
2022-08-01T07:44:22.758Z,1.20
2022-08-01T07:46:49.298Z,1.80
2022-08-01T07:49:16.117Z,2.10
2022-08-01T07:51:42.712Z,1.33
2022-08-01T07:54:33.442Z,1.67
2022-08-01T07:57:02.046Z,1.40
2022-08-01T07:59:28.655Z,1.37
2022-08-01T08:01:55.252Z,1.63
2022-08-01T08:04:22.607Z,2.30
2022-08-01T08:06:50.023Z,2.23
2022-08-01T08:09:17.238Z,2.23
2022-08-01T08:11:48.393Z,2.23
2022-08-01T08:14:16.010Z,2.60
2022-08-01T08:16:43.616Z,2.80
2022-08-01T08:19:10.386Z,2.53
2022-08-01T08:21:38.673Z,2.27
2022-08-01T08:24:25.994Z,2.53
2022-08-01T08:26:59.371Z,2.30
2022-08-01T08:29:27.339Z,2.20
2022-08-01T08:31:57.046Z,2.07
2022-08-01T08:34:24.593Z,2.00
2022-08-01T08:36:51.795Z,2.17
2022-08-01T08:39:19.796Z,1.93
2022-08-01T08:41:49.304Z,2.20
2022-08-01T08:44:18.183Z,1.80
2022-08-01T08:46:51.846Z,2.70
2022-08-01T08:49:24.890Z,2.57
2022-08-01T08:51:53.521Z,3.10
2022-08-01T08:54:29.054Z,2.90
2022-08-01T08:56:59.836Z,2.93
2022-08-01T08:59:27.581Z,2.30
2022-08-01T09:01:54.321Z,2.13
2022-08-01T09:04:25.880Z,2.00
2022-08-01T09:06:53.974Z,2.10
2022-08-01T09:09:20.510Z,2.70
2022-08-01T09:11:56.859Z,2.33
2022-08-01T09:14:28.511Z,2.30
2022-08-01T09:17:07.580Z,2.70
2022-08-01T09:19:42.432Z,3.33
2022-08-01T09:22:14.019Z,3.40
2022-08-01T09:24:41.674Z,2.63
2022-08-01T09:27:25.121Z,2.03
2022-08-01T09:30:01.017Z,2.67
2022-08-01T09:32:35.907Z,2.60
2022-08-01T09:35:31.040Z,2.27
2022-08-01T09:38:21.155Z,2.13
2022-08-01T09:40:59.570Z,2.90
2022-08-01T09:43:28.786Z,3.53
2022-08-01T09:45:58.229Z,2.60
2022-08-01T09:48:27.993Z,2.93
2022-08-01T09:51:00.917Z,2.80
2022-08-01T09:53:52.132Z,2.70
2022-08-01T09:56:22.607Z,2.87
2022-08-01T09:58:57.806Z,3.10
2022-08-01T10:01:25.477Z,3.00
2022-08-01T10:04:22.355Z,3.47
2022-08-01T10:06:53.454Z,3.33
2022-08-01T10:09:40.681Z,2.93
2022-08-01T10:12:15.741Z,2.70
2022-08-01T10:14:50.183Z,2.93
2022-08-01T10:17:19.956Z,3.30
2022-08-01T10:19:50.458Z,3.43
2022-08-01T10:22:19.304Z,2.67
2022-08-01T10:24:48.117Z,2.83
2022-08-01T10:27:17.311Z,2.63
2022-08-01T10:30:08.636Z,2.63
2022-08-01T10:32:50.632Z,2.67
2022-08-01T10:35:45.683Z,2.30
2022-08-01T10:38:05.961Z,2.50
2022-08-01T10:40:32.908Z,3.40
2022-08-01T10:42:59.812Z,3.90
2022-08-01T10:45:27.652Z,2.47
2022-08-01T10:48:06.803Z,2.60
2022-08-01T10:50:43.497Z,2.90
2022-08-01T10:53:16.371Z,3.60
2022-08-01T10:55:57.107Z,2.67
2022-08-01T10:58:42.581Z,3.27
2022-08-01T11:01:27.801Z,3.20
2022-08-01T11:04:01.900Z,3.17
2022-08-01T11:06:41.232Z,2.30
2022-08-01T11:09:16.214Z,2.70
2022-08-01T11:12:13.182Z,2.67
2022-08-01T11:15:00.553Z,2.47
2022-08-01T11:17:48.932Z,2.10
2022-08-01T11:20:42.867Z,2.43
2022-08-01T11:23:13.529Z,2.20
2022-08-01T11:26:04.683Z,2.87
2022-08-01T11:28:33.876Z,2.57
2022-08-01T11:31:07.955Z,2.83
2022-08-01T11:33:41.765Z,2.67
2022-08-01T11:36:12.518Z,2.47
2022-08-01T11:39:13.746Z,2.33
2022-08-01T11:41:42.140Z,2.03
2022-08-01T11:44:20.958Z,2.20
2022-08-01T11:47:08.975Z,1.93
2022-08-01T11:49:41.943Z,2.17
2022-08-01T11:52:17.408Z,2.30
2022-08-01T11:54:45.714Z,1.90
2022-08-01T11:57:34.070Z,2.07
2022-08-01T12:00:03.213Z,3.67
2022-08-01T12:02:39.441Z,2.70
2022-08-01T12:05:12.761Z,2.00
2022-08-01T12:07:42.428Z,1.87
2022-08-01T12:10:14.498Z,2.07
2022-08-01T12:13:03.335Z,3.00
2022-08-01T12:15:32.566Z,2.10
2022-08-01T12:18:00.995Z,1.73
2022-08-01T12:20:31.603Z,2.33
2022-08-01T12:23:02.000Z,1.90
2022-08-01T12:25:28.902Z,1.90
2022-08-01T12:27:56.890Z,2.10
2022-08-01T12:30:25.126Z,1.83
2022-08-01T12:32:53.736Z,2.23
2022-08-01T12:35:25.368Z,2.50
2022-08-01T12:37:53.154Z,2.40
2022-08-01T12:40:25.522Z,2.53
2022-08-01T12:42:54.949Z,2.60
2022-08-01T12:45:29.652Z,2.10
2022-08-01T12:47:58.492Z,1.57
2022-08-01T12:50:29.099Z,2.17
2022-08-01T12:52:55.915Z,2.17
2022-08-01T12:55:34.018Z,1.80
2022-08-01T12:58:15.457Z,2.53
2022-08-01T13:00:45.343Z,2.23
2022-08-01T13:03:15.442Z,2.10
2022-08-01T13:05:49.654Z,1.93
2022-08-01T13:08:21.205Z,2.23
2022-08-01T13:10:48.571Z,2.30
2022-08-01T13:13:28.263Z,1.90
2022-08-01T13:16:06.237Z,2.00
2022-08-01T13:18:34.630Z,2.67
2022-08-01T13:21:21.686Z,2.13
2022-08-01T13:24:12.212Z,2.70
2022-08-01T13:26:45.093Z,2.13
2022-08-01T13:29:14.562Z,2.60
2022-08-01T13:31:42.269Z,1.90
2022-08-01T13:34:09.252Z,1.90
2022-08-01T13:36:36.668Z,2.17
2022-08-01T13:39:22.953Z,2.03
2022-08-01T13:41:49.749Z,1.90
2022-08-01T13:44:16.497Z,1.80
2022-08-01T13:46:49.627Z,3.17
2022-08-01T13:49:17.925Z,2.33
2022-08-01T13:51:47.309Z,2.40
2022-08-01T13:54:14.007Z,1.77
2022-08-01T13:56:40.571Z,2.23
2022-08-01T13:59:07.562Z,2.33
2022-08-01T14:01:34.944Z,2.77
2022-08-01T14:04:02.566Z,2.80
2022-08-01T14:06:29.153Z,2.10
2022-08-01T14:08:55.744Z,1.73
2022-08-01T14:11:22.598Z,1.77
2022-08-01T14:13:49.147Z,2.13
2022-08-01T14:16:17.906Z,2.20
2022-08-01T14:18:44.476Z,1.60
2022-08-01T14:21:11.858Z,1.73
2022-08-01T14:23:39.214Z,2.93
2022-08-01T14:26:11.836Z,1.87
2022-08-01T14:28:41.091Z,2.00
2022-08-01T14:31:08.795Z,2.17
2022-08-01T14:33:35.505Z,2.03
2022-08-01T14:36:21.276Z,2.20
2022-08-01T14:38:50.571Z,1.87
2022-08-01T14:41:17.160Z,2.10
2022-08-01T14:43:43.723Z,1.87
2022-08-01T14:46:10.946Z,1.87
2022-08-01T14:48:37.990Z,1.80
2022-08-01T14:51:07.943Z,1.20
2022-08-01T14:53:36.143Z,2.23
2022-08-01T14:56:04.811Z,2.00
2022-08-01T14:58:31.437Z,2.27
2022-08-01T15:00:59.113Z,1.90
2022-08-01T15:03:26.905Z,2.50
2022-08-01T15:05:53.881Z,2.00
2022-08-01T15:08:20.467Z,1.83
2022-08-01T15:10:47.045Z,1.47
2022-08-01T15:13:13.581Z,1.73
2022-08-01T15:15:40.127Z,1.80
2022-08-01T15:18:07.125Z,2.10
2022-08-01T15:20:34.002Z,1.73
2022-08-01T15:23:00.861Z,1.60
2022-08-01T15:25:41.236Z,1.73
2022-08-01T15:28:13.307Z,2.27
2022-08-01T15:30:40.408Z,2.00
2022-08-01T15:33:07.520Z,1.87
2022-08-01T15:35:34.394Z,1.70
2022-08-01T15:38:00.950Z,2.57
2022-08-01T15:40:29.103Z,1.97
2022-08-01T15:42:55.775Z,1.87
2022-08-01T15:45:46.472Z,2.43
2022-08-01T15:48:10.060Z,2.20
2022-08-01T15:50:39.015Z,1.57
2022-08-01T15:53:06.162Z,1.70
2022-08-01T15:55:32.830Z,1.70
2022-08-01T15:57:59.494Z,1.90
2022-08-01T16:00:26.044Z,1.77
2022-08-01T16:03:00.481Z,1.90
2022-08-01T16:05:27.058Z,2.20
2022-08-01T16:07:59.653Z,2.13
2022-08-01T16:10:29.774Z,2.30
2022-08-01T16:12:56.315Z,2.77
2022-08-01T16:15:23.007Z,2.30
2022-08-01T16:18:03.396Z,1.60
2022-08-01T16:20:30.238Z,1.90
2022-08-01T16:22:56.790Z,1.90
2022-08-01T16:25:23.410Z,2.00
2022-08-01T16:27:49.985Z,2.07
2022-08-01T16:30:16.825Z,1.93
2022-08-01T16:32:47.679Z,2.43
2022-08-01T16:35:18.498Z,2.50
2022-08-01T16:37:45.037Z,1.90
2022-08-01T16:40:11.916Z,2.30
2022-08-01T16:42:38.471Z,2.20
2022-08-01T16:45:12.807Z,2.10
2022-08-01T16:47:41.008Z,1.97
2022-08-01T16:50:09.453Z,2.07
2022-08-01T16:52:42.190Z,1.70
2022-08-01T16:55:10.781Z,2.33
2022-08-01T16:57:38.360Z,2.00
2022-08-01T17:00:09.474Z,1.87
2022-08-01T17:02:37.415Z,2.00
2022-08-01T17:05:08.596Z,2.03
2022-08-01T17:07:40.327Z,1.70
2022-08-01T17:10:07.471Z,2.53
2022-08-01T17:12:35.467Z,2.20
2022-08-01T17:15:02.239Z,2.80
2022-08-01T17:17:28.826Z,3.07
2022-08-01T17:19:55.422Z,3.30
2022-08-01T17:22:22.330Z,1.90
2022-08-01T17:24:50.973Z,1.63
2022-08-01T17:27:18.355Z,2.03
2022-08-01T17:29:45.240Z,2.10
2022-08-01T17:32:13.138Z,2.67
2022-08-01T17:34:40.734Z,2.97
2022-08-01T17:37:07.785Z,2.80
2022-08-01T17:39:37.811Z,3.60
2022-08-01T17:42:07.246Z,2.30
2022-08-01T17:44:34.005Z,3.10
2022-08-01T17:47:00.547Z,1.67
2022-08-01T17:49:52.424Z,2.87
2022-08-01T17:52:13.924Z,2.10
2022-08-01T17:54:41.923Z,2.50
2022-08-01T17:57:09.040Z,2.10
2022-08-01T17:59:36.400Z,1.60
2022-08-01T18:02:04.479Z,2.60
2022-08-01T18:04:33.763Z,2.20
2022-08-01T18:07:01.009Z,2.20
2022-08-01T18:09:32.404Z,2.20
2022-08-01T18:11:59.822Z,2.10
2022-08-01T18:14:40.226Z,2.70
2022-08-01T18:17:11.506Z,2.80
2022-08-01T18:19:39.641Z,3.13
2022-08-01T18:22:31.297Z,1.97
2022-08-01T18:24:53.837Z,1.90
2022-08-01T18:27:20.422Z,2.30
2022-08-01T18:29:48.388Z,2.07
2022-08-01T18:32:15.737Z,2.03
2022-08-01T18:34:42.386Z,2.67
2022-08-01T18:37:11.361Z,2.77
2022-08-01T18:39:39.767Z,2.37
2022-08-01T18:42:06.520Z,2.43
2022-08-01T18:44:33.135Z,2.10
2022-08-01T18:47:00.194Z,2.20
2022-08-01T18:49:26.797Z,2.07
2022-08-01T18:51:54.182Z,2.90
2022-08-01T18:54:20.731Z,2.23
2022-08-01T18:56:47.342Z,3.73
2022-08-01T18:59:14.521Z,2.73
2022-08-01T19:01:41.252Z,2.87
2022-08-01T19:04:08.975Z,2.20
2022-08-01T19:06:35.865Z,1.83
2022-08-01T19:09:03.575Z,3.30
2022-08-01T19:11:31.850Z,2.43
2022-08-01T19:14:00.207Z,1.80
2022-08-01T19:16:28.124Z,2.40
2022-08-01T19:18:54.799Z,2.60
2022-08-01T19:21:22.354Z,1.93
2022-08-01T19:24:07.332Z,2.53
2022-08-01T19:26:35.957Z,2.73
2022-08-01T19:29:09.677Z,2.53
2022-08-01T19:31:41.589Z,2.00
2022-08-01T19:34:12.721Z,2.37
2022-08-01T19:36:39.675Z,2.70
2022-08-01T19:39:07.661Z,2.20
2022-08-01T19:41:34.895Z,2.93
2022-08-01T19:44:03.360Z,1.97
2022-08-01T19:46:30.816Z,2.37
2022-08-01T19:48:57.763Z,2.10
2022-08-01T19:51:33.791Z,2.20
2022-08-01T19:54:05.002Z,2.40
2022-08-01T19:56:39.593Z,2.30
2022-08-01T19:59:09.855Z,2.20
2022-08-01T20:01:36.966Z,2.23
2022-08-01T20:04:04.955Z,3.00
2022-08-01T20:06:32.905Z,3.60
2022-08-01T20:08:59.933Z,2.90
2022-08-01T20:11:27.119Z,2.87
2022-08-01T20:13:56.780Z,2.77
2022-08-01T20:16:32.387Z,2.37
2022-08-01T20:18:59.361Z,2.60
2022-08-01T20:21:27.425Z,3.27
2022-08-01T20:24:02.706Z,2.23
2022-08-01T20:26:31.658Z,2.10
2022-08-01T20:29:00.373Z,2.37
2022-08-01T20:31:28.164Z,2.27
2022-08-01T20:34:00.783Z,3.07
2022-08-01T20:36:28.317Z,2.90
2022-08-01T20:38:56.707Z,3.40
2022-08-01T20:41:25.803Z,2.63
2022-08-01T20:43:55.109Z,3.33
2022-08-01T20:46:25.275Z,2.47
2022-08-01T20:48:57.298Z,2.90
2022-08-01T20:51:28.970Z,3.47
2022-08-01T20:53:56.083Z,4.57
2022-08-01T20:56:30.000Z,4.70
2022-08-01T20:59:55.515Z,2.30
2022-08-01T21:02:26.974Z,2.50
2022-08-01T21:05:36.511Z,2.93
2022-08-01T21:08:22.489Z,2.77
2022-08-01T21:10:56.923Z,2.97
2022-08-01T21:13:32.024Z,2.57
2022-08-01T21:16:22.704Z,2.70
2022-08-01T21:19:10.059Z,3.17
2022-08-01T21:21:42.901Z,4.30
2022-08-01T21:24:15.972Z,3.50
2022-08-01T21:26:43.753Z,2.57
2022-08-01T21:29:11.159Z,3.33
2022-08-01T21:31:40.823Z,2.80
2022-08-01T21:34:08.775Z,2.50
2022-08-01T21:36:36.000Z,2.57
2022-08-01T21:39:05.477Z,2.70
2022-08-01T21:41:56.591Z,2.63
2022-08-01T21:44:19.834Z,3.57
2022-08-01T21:46:48.110Z,4.20
2022-08-01T21:49:14.790Z,3.10
2022-08-01T21:51:47.581Z,3.43
2022-08-01T21:54:28.729Z,4.20
2022-08-01T21:57:17.681Z,3.50
2022-08-01T21:59:56.076Z,3.07
2022-08-01T22:02:36.452Z,3.53
2022-08-01T22:05:08.688Z,3.50
2022-08-01T22:07:39.506Z,3.80
2022-08-01T22:10:06.870Z,3.57
2022-08-01T22:12:35.551Z,2.80
2022-08-01T22:15:05.997Z,3.80
2022-08-01T22:17:33.404Z,3.57
2022-08-01T22:20:00.618Z,3.30
2022-08-01T22:22:45.002Z,2.77
2022-08-01T22:25:15.665Z,3.00
2022-08-01T22:28:03.163Z,2.80
2022-08-01T22:30:29.473Z,2.93
2022-08-01T22:33:15.755Z,3.67
2022-08-01T22:35:52.573Z,2.37
2022-08-01T22:38:24.339Z,3.03
2022-08-01T22:41:01.330Z,3.33
2022-08-01T22:43:37.385Z,3.60
2022-08-01T22:46:14.444Z,3.43
2022-08-01T22:48:44.237Z,3.67
2022-08-01T22:51:40.069Z,3.20
2022-08-01T22:54:09.844Z,2.43
2022-08-01T22:56:41.403Z,2.70
2022-08-01T22:59:13.673Z,2.77
2022-08-01T23:01:47.766Z,2.80
2022-08-01T23:04:29.510Z,3.20
2022-08-01T23:07:05.382Z,3.40
2022-08-01T23:09:52.983Z,3.40
2022-08-01T23:12:22.793Z,2.77
2022-08-01T23:14:51.271Z,3.27
2022-08-01T23:17:27.061Z,3.27
2022-08-01T23:20:00.375Z,3.40
2022-08-01T23:22:30.887Z,3.07
2022-08-01T23:25:04.246Z,4.07
2022-08-01T23:27:54.200Z,2.80
2022-08-01T23:30:30.785Z,2.50
2022-08-01T23:32:58.141Z,2.93
2022-08-01T23:35:26.497Z,2.60
2022-08-01T23:37:53.420Z,2.87
2022-08-01T23:40:20.757Z,3.20
2022-08-01T23:42:53.482Z,3.33
2022-08-01T23:45:21.111Z,2.70
2022-08-01T23:47:47.673Z,2.60
2022-08-01T23:50:14.252Z,2.70
2022-08-01T23:52:41.308Z,2.60
2022-08-01T23:55:15.670Z,3.07
2022-08-01T23:57:42.765Z,2.70
